createdAt,value
2022-12-08T00:02:03.867Z,1.55
2022-12-08T00:04:52.292Z,1.51
2022-12-08T00:07:37.795Z,1.48
2022-12-08T00:10:25.091Z,1.40
2022-12-08T00:12:57.562Z,1.40
2022-12-08T00:15:26.975Z,1.14
2022-12-08T00:17:55.150Z,1.36
2022-12-08T00:20:25.385Z,1.36
2022-12-08T00:22:53.369Z,1.35
2022-12-08T00:25:23.963Z,1.36
2022-12-08T00:27:54.185Z,1.33
2022-12-08T00:30:22.234Z,1.35
2022-12-08T00:32:55.290Z,1.37
2022-12-08T00:35:25.612Z,1.38
2022-12-08T00:38:00.440Z,1.39
2022-12-08T00:40:31.317Z,1.39
2022-12-08T00:42:59.476Z,1.42
2022-12-08T00:45:27.402Z,1.49
2022-12-08T00:47:56.824Z,1.49
2022-12-08T00:50:24.902Z,1.53
2022-12-08T00:52:52.873Z,1.53
2022-12-08T00:55:20.944Z,1.56
2022-12-08T00:57:54.481Z,1.56
2022-12-08T01:00:22.726Z,1.55
2022-12-08T01:02:50.755Z,1.52
2022-12-08T01:05:25.219Z,1.49
2022-12-08T01:07:53.294Z,1.47
2022-12-08T01:10:23.825Z,1.45
2022-12-08T01:12:52.194Z,1.41
2022-12-08T01:15:21.075Z,1.39
2022-12-08T01:17:49.053Z,1.37
2022-12-08T01:20:17.290Z,1.38
2022-12-08T01:22:46.806Z,1.36
2022-12-08T01:25:17.433Z,1.33
2022-12-08T01:27:48.296Z,1.33
2022-12-08T01:30:16.579Z,1.36
2022-12-08T01:32:44.769Z,1.37
2022-12-08T01:35:13.723Z,1.41
2022-12-08T01:37:41.675Z,1.45
2022-12-08T01:40:11.846Z,1.47
2022-12-08T01:42:42.898Z,1.45
2022-12-08T01:47:41.867Z,1.46
2022-12-08T01:50:12.792Z,1.46
2022-12-08T01:52:48.570Z,1.41
2022-12-08T01:55:20.096Z,1.44
2022-12-08T01:57:51.791Z,1.34
2022-12-08T02:00:22.742Z,1.39
2022-12-08T02:02:59.963Z,1.37
2022-12-08T02:05:34.138Z,1.37
2022-12-08T02:08:07.882Z,1.35
2022-12-08T02:10:39.066Z,1.35
2022-12-08T02:13:10.557Z,1.40
2022-12-08T02:15:43.969Z,1.40
2022-12-08T02:18:30.601Z,1.39
2022-12-08T02:21:05.117Z,1.40
2022-12-08T02:23:42.455Z,1.40
2022-12-08T02:26:46.063Z,1.40
2022-12-08T02:29:49.312Z,1.40
2022-12-08T02:32:37.444Z,1.44
2022-12-08T02:35:12.077Z,1.42
2022-12-08T02:37:48.126Z,1.41
2022-12-08T02:40:23.758Z,1.32
2022-12-08T02:42:58.478Z,1.43
2022-12-08T02:45:31.417Z,1.51
2022-12-08T02:48:00.626Z,1.56
2022-12-08T02:50:30.149Z,1.60
2022-12-08T02:52:58.270Z,1.67
2022-12-08T02:55:28.882Z,1.69
2022-12-08T02:58:21.296Z,1.72
2022-12-08T03:01:08.456Z,1.70
2022-12-08T03:03:46.517Z,1.71
2022-12-08T03:06:26.660Z,1.77
2022-12-08T03:09:01.295Z,1.74
2022-12-08T03:11:34.593Z,1.74
2022-12-08T03:14:03.739Z,1.77
2022-12-08T03:16:34.155Z,1.80
2022-12-08T03:19:10.139Z,1.81
2022-12-08T03:21:45.615Z,1.82
2022-12-08T03:24:14.749Z,1.82
2022-12-08T03:26:47.607Z,1.83
2022-12-08T03:29:16.105Z,1.83
2022-12-08T03:31:50.697Z,1.84
2022-12-08T03:34:19.775Z,1.86
2022-12-08T03:36:51.671Z,1.84
2022-12-08T03:39:21.830Z,1.85
2022-12-08T03:41:50.164Z,1.83
2022-12-08T03:44:20.581Z,1.88
2022-12-08T03:46:48.667Z,1.87
2022-12-08T03:49:16.758Z,1.85
2022-12-08T03:51:44.893Z,1.90
2022-12-08T03:54:16.375Z,1.96
2022-12-08T03:56:45.011Z,1.93
2022-12-08T03:59:17.556Z,1.93
2022-12-08T04:01:45.811Z,1.91
2022-12-08T04:04:14.130Z,1.88
2022-12-08T04:06:42.125Z,1.88
2022-12-08T04:09:12.789Z,1.89
2022-12-08T04:11:42.168Z,1.90
2022-12-08T04:14:13.458Z,1.86
2022-12-08T04:16:43.580Z,1.81
2022-12-08T04:19:11.682Z,1.82
2022-12-08T04:21:42.042Z,1.83
2022-12-08T04:24:10.488Z,1.81
2022-12-08T04:26:38.608Z,1.81
2022-12-08T04:29:10.558Z,1.82
2022-12-08T04:31:38.839Z,1.78
2022-12-08T04:34:06.805Z,1.76
2022-12-08T04:36:34.867Z,1.77
2022-12-08T04:39:02.987Z,1.75
2022-12-08T04:41:31.115Z,1.71
2022-12-08T04:44:01.769Z,1.74
2022-12-08T04:46:31.320Z,1.71
2022-12-08T04:48:59.665Z,1.74
2022-12-08T04:51:32.101Z,1.74
2022-12-08T04:54:00.619Z,1.77
2022-12-08T04:56:28.682Z,1.76
2022-12-08T04:58:56.644Z,1.73
2022-12-08T05:01:27.330Z,1.72
2022-12-08T05:03:56.858Z,1.71
2022-12-08T05:06:24.932Z,1.69
2022-12-08T05:08:53.070Z,1.70
2022-12-08T05:11:21.223Z,1.69
2022-12-08T05:13:49.363Z,1.67
2022-12-08T05:16:17.719Z,1.68
2022-12-08T05:18:46.239Z,1.67
2022-12-08T05:21:20.439Z,1.69
2022-12-08T05:23:48.401Z,1.69
2022-12-08T05:26:16.583Z,1.70
2022-12-08T05:28:44.750Z,1.69
2022-12-08T05:31:13.528Z,1.72
2022-12-08T05:33:42.348Z,1.72
2022-12-08T05:36:12.633Z,1.72
2022-12-08T05:38:42.283Z,1.73
2022-12-08T05:41:14.348Z,1.76
2022-12-08T05:43:42.742Z,1.78
2022-12-08T05:46:11.724Z,1.73
2022-12-08T05:48:40.266Z,1.76
2022-12-08T05:51:19.620Z,1.78
2022-12-08T05:53:54.258Z,1.78
2022-12-08T05:56:23.364Z,1.82
2022-12-08T05:58:51.769Z,1.83
2022-12-08T06:01:24.247Z,1.82
2022-12-08T06:03:52.649Z,1.82
2022-12-08T06:06:20.877Z,1.90
2022-12-08T06:08:51.837Z,1.89
2022-12-08T06:11:23.246Z,1.91
2022-12-08T06:13:52.170Z,1.82
2022-12-08T06:16:20.978Z,1.72
2022-12-08T06:18:49.653Z,1.68
2022-12-08T06:21:18.121Z,1.56
2022-12-08T06:23:49.381Z,1.55
2022-12-08T06:26:18.703Z,1.46
2022-12-08T06:28:49.480Z,1.41
2022-12-08T06:31:20.309Z,1.37
2022-12-08T06:33:48.825Z,1.34
2022-12-08T06:36:22.001Z,1.28
2022-12-08T06:38:50.252Z,1.27
2022-12-08T06:41:20.663Z,1.25
2022-12-08T06:43:50.184Z,1.24
2022-12-08T06:48:37.658Z,1.20
2022-12-08T06:51:09.823Z,1.18
2022-12-08T06:53:39.041Z,1.15
2022-12-08T06:56:08.428Z,1.13
2022-12-08T06:58:36.855Z,1.11
2022-12-08T07:01:07.190Z,1.13
2022-12-08T07:03:37.135Z,1.14
2022-12-08T07:06:06.420Z,1.12
2022-12-08T07:08:35.488Z,1.05
2022-12-08T07:11:08.433Z,1.12
2022-12-08T07:13:36.497Z,1.11
2022-12-08T07:16:07.087Z,1.14
2022-12-08T07:18:37.048Z,1.16
2022-12-08T07:21:07.657Z,1.16
2022-12-08T07:23:35.932Z,1.19
2022-12-08T07:26:09.484Z,1.22
2022-12-08T07:28:39.818Z,1.20
2022-12-08T07:31:09.309Z,1.22
2022-12-08T07:33:41.275Z,1.22
2022-12-08T07:36:09.805Z,1.19
2022-12-08T07:38:38.208Z,1.22
2022-12-08T07:41:12.899Z,1.20
2022-12-08T07:43:42.277Z,1.23
2022-12-08T07:46:13.244Z,1.23
2022-12-08T07:48:43.310Z,1.28
2022-12-08T07:51:12.817Z,1.33
2022-12-08T07:53:42.688Z,1.34
2022-12-08T07:56:12.192Z,1.38
2022-12-08T07:58:45.791Z,1.41
2022-12-08T08:01:24.006Z,1.40
2022-12-08T08:03:54.395Z,1.43
2022-12-08T08:06:25.823Z,1.39
2022-12-08T08:08:54.083Z,1.42
2022-12-08T08:11:22.333Z,1.44
2022-12-08T08:13:50.798Z,1.43
2022-12-08T08:16:22.327Z,1.48
2022-12-08T08:18:57.582Z,1.52
2022-12-08T08:24:13.866Z,1.53
2022-12-08T08:26:41.871Z,1.56
2022-12-08T08:29:10.047Z,1.61
2022-12-08T08:31:38.243Z,1.63
2022-12-08T08:34:09.209Z,1.62
2022-12-08T08:36:37.152Z,1.66
2022-12-08T08:39:09.757Z,1.66
2022-12-08T08:41:41.455Z,1.67
2022-12-08T08:44:10.319Z,1.73
2022-12-08T08:46:38.354Z,1.79
2022-12-08T08:49:06.546Z,1.84
2022-12-08T08:51:36.171Z,1.92
2022-12-08T08:54:04.395Z,1.92
2022-12-08T08:56:34.384Z,1.97
2022-12-08T08:59:03.051Z,2.00
2022-12-08T09:01:31.766Z,1.99
2022-12-08T09:04:00.327Z,2.04
2022-12-08T09:06:29.419Z,2.00
2022-12-08T09:08:59.146Z,2.07
2022-12-08T09:11:27.190Z,2.18
2022-12-08T09:13:56.178Z,2.30
2022-12-08T09:16:25.331Z,2.32
2022-12-08T09:18:53.739Z,2.27
2022-12-08T09:21:26.702Z,2.36
2022-12-08T09:23:57.209Z,2.40
2022-12-08T09:26:28.135Z,2.39
2022-12-08T09:28:57.474Z,2.43
2022-12-08T09:31:26.115Z,2.44
2022-12-08T09:33:54.190Z,2.63
2022-12-08T09:36:22.860Z,2.56
2022-12-08T09:38:51.684Z,2.62
2022-12-08T09:41:36.831Z,2.69
2022-12-08T09:44:27.948Z,2.65
2022-12-08T09:47:01.598Z,2.66
2022-12-08T09:49:38.020Z,2.88
2022-12-08T09:52:15.433Z,2.95
2022-12-08T09:54:43.662Z,3.07
2022-12-08T09:57:18.086Z,3.41
2022-12-08T09:59:50.949Z,3.58
2022-12-08T10:02:24.134Z,3.75
2022-12-08T10:04:56.577Z,3.58
2022-12-08T10:07:33.310Z,3.76
2022-12-08T10:10:06.311Z,3.73
2022-12-08T10:12:44.114Z,3.94
2022-12-08T10:15:38.137Z,4.56
2022-12-08T10:18:16.004Z,4.42
2022-12-08T10:20:47.490Z,4.33
2022-12-08T10:23:24.516Z,4.12
2022-12-08T10:25:57.704Z,4.00
2022-12-08T10:28:27.085Z,3.83
2022-12-08T10:30:55.266Z,3.92
2022-12-08T10:33:25.721Z,4.09
2022-12-08T10:35:59.340Z,4.23
2022-12-08T10:38:30.849Z,4.21
2022-12-08T10:41:05.578Z,4.42
2022-12-08T10:43:37.917Z,4.22
2022-12-08T10:46:13.653Z,4.40
2022-12-08T10:48:53.265Z,4.53
2022-12-08T10:51:30.898Z,4.44
2022-12-08T10:53:59.416Z,4.67
2022-12-08T10:56:31.570Z,5.08
2022-12-08T10:59:14.393Z,5.04
2022-12-08T11:01:46.732Z,5.20
2022-12-08T11:04:19.106Z,4.98
2022-12-08T11:06:49.094Z,4.97
2022-12-08T11:09:38.745Z,4.76
2022-12-08T11:12:14.030Z,4.85
2022-12-08T11:14:58.995Z,4.70
2022-12-08T11:17:29.733Z,4.86
2022-12-08T11:20:01.745Z,4.98
2022-12-08T11:22:34.115Z,5.00
2022-12-08T11:25:11.846Z,4.59
2022-12-08T11:27:43.403Z,4.52
2022-12-08T11:30:17.612Z,4.39
2022-12-08T11:32:47.865Z,4.45
2022-12-08T11:35:23.757Z,4.50
2022-12-08T11:37:52.591Z,4.46
2022-12-08T11:40:27.070Z,4.33
2022-12-08T11:43:09.605Z,4.20
2022-12-08T11:45:42.511Z,4.41
2022-12-08T11:49:39.729Z,4.16
2022-12-08T11:52:17.860Z,4.15
2022-12-08T11:54:52.997Z,4.39
2022-12-08T11:57:24.181Z,4.53
2022-12-08T11:59:53.566Z,4.62
2022-12-08T12:02:25.407Z,4.59
2022-12-08T12:05:00.853Z,4.48
2022-12-08T12:07:54.397Z,4.24
2022-12-08T12:10:48.708Z,4.38
2022-12-08T12:13:37.618Z,4.39
2022-12-08T12:16:33.813Z,4.31
2022-12-08T12:19:05.875Z,4.24
2022-12-08T12:21:40.408Z,4.17
2022-12-08T12:24:15.341Z,4.13
2022-12-08T12:26:56.443Z,4.17
2022-12-08T12:29:27.693Z,4.42
2022-12-08T12:31:58.372Z,4.59
2022-12-08T12:34:29.568Z,4.66
2022-12-08T12:37:17.609Z,4.57
2022-12-08T12:39:56.308Z,4.60
2022-12-08T12:42:39.052Z,4.70
2022-12-08T12:45:30.883Z,4.70
2022-12-08T12:48:30.811Z,4.46
2022-12-08T12:50:59.292Z,4.29
2022-12-08T12:53:52.096Z,4.28
2022-12-08T12:56:49.588Z,4.10
2022-12-08T12:59:55.202Z,4.05
2022-12-08T13:02:26.255Z,3.74
2022-12-08T13:04:58.815Z,3.76
2022-12-08T13:07:29.784Z,3.79
2022-12-08T13:10:03.774Z,3.80
2022-12-08T13:12:34.893Z,3.71
2022-12-08T13:15:06.304Z,3.68
2022-12-08T13:17:38.300Z,3.65
2022-12-08T13:20:08.480Z,3.71
2022-12-08T13:22:59.101Z,3.78
2022-12-08T13:25:52.382Z,3.76
2022-12-08T13:28:24.451Z,3.76
2022-12-08T13:30:53.777Z,3.83
2022-12-08T13:33:34.739Z,3.84
2022-12-08T13:36:23.588Z,3.95
2022-12-08T13:38:57.075Z,3.90
2022-12-08T13:41:35.874Z,3.85
2022-12-08T13:44:57.162Z,3.82
2022-12-08T13:58:36.400Z,3.46
2022-12-08T14:01:08.886Z,3.44
2022-12-08T14:04:04.604Z,3.27
2022-12-08T14:06:38.410Z,3.20
2022-12-08T14:09:11.546Z,3.15
2022-12-08T14:11:42.473Z,3.00
2022-12-08T14:14:32.511Z,2.98
2022-12-08T14:17:08.608Z,3.01
2022-12-08T14:19:37.253Z,2.92
2022-12-08T14:22:14.254Z,3.03
2022-12-08T14:24:46.052Z,3.05
2022-12-08T14:27:18.069Z,2.95
2022-12-08T14:29:52.239Z,2.96
2022-12-08T14:32:23.937Z,2.96
2022-12-08T14:35:00.563Z,2.92
2022-12-08T14:37:31.903Z,3.01
2022-12-08T14:40:04.161Z,2.89
2022-12-08T14:42:32.455Z,2.87
2022-12-08T14:45:05.019Z,2.76
2022-12-08T14:47:35.689Z,2.69
2022-12-08T14:50:27.083Z,2.59
2022-12-08T14:52:56.487Z,2.49
2022-12-08T14:55:28.305Z,2.38
2022-12-08T14:57:58.800Z,2.33
2022-12-08T15:00:28.431Z,2.31
2022-12-08T15:02:58.204Z,2.29
2022-12-08T15:05:32.070Z,2.26
2022-12-08T15:08:04.889Z,2.23
2022-12-08T15:10:38.013Z,2.16
2022-12-08T15:13:22.797Z,2.12
2022-12-08T15:15:52.802Z,2.00
2022-12-08T15:18:31.513Z,1.97
2022-12-08T15:21:05.280Z,1.91
2022-12-08T15:23:42.550Z,1.80
2022-12-08T15:26:21.382Z,1.81
2022-12-08T15:28:49.424Z,1.77
2022-12-08T15:31:20.887Z,1.79
2022-12-08T15:33:49.280Z,1.82
2022-12-08T15:36:19.961Z,1.86
2022-12-08T15:38:49.392Z,1.88
2022-12-08T15:41:17.599Z,1.89
2022-12-08T15:43:48.088Z,1.91
2022-12-08T15:46:16.081Z,1.92
2022-12-08T15:48:44.438Z,1.92
2022-12-08T15:51:12.364Z,1.93
2022-12-08T15:53:42.670Z,1.93
2022-12-08T15:56:30.106Z,1.98
2022-12-08T15:58:58.808Z,1.99
2022-12-08T16:01:29.222Z,1.98
2022-12-08T16:04:59.896Z,1.97
2022-12-08T16:07:20.396Z,1.98
2022-12-08T16:09:41.862Z,1.99
2022-12-08T16:13:06.952Z,1.97
2022-12-08T16:18:16.531Z,1.94
2022-12-08T16:21:07.599Z,1.93
2022-12-08T16:23:48.239Z,1.90
2022-12-08T16:26:44.327Z,1.88
2022-12-08T16:29:08.784Z,1.89
2022-12-08T16:31:37.758Z,1.89
2022-12-08T16:34:06.269Z,1.89
2022-12-08T16:36:36.994Z,1.86
2022-12-08T16:39:05.150Z,1.84
2022-12-08T16:41:50.947Z,1.81
2022-12-08T16:44:20.384Z,1.79
2022-12-08T16:46:48.333Z,1.78
2022-12-08T16:50:37.597Z,1.75
2022-12-08T16:53:09.003Z,1.74
2022-12-08T16:55:37.158Z,1.72
2022-12-08T16:58:05.928Z,1.70
2022-12-08T17:00:36.889Z,1.69
2022-12-08T17:03:06.129Z,1.69
2022-12-08T17:05:34.390Z,1.68
2022-12-08T17:08:06.983Z,1.67
2022-12-08T17:10:39.803Z,1.64
2022-12-08T17:13:08.094Z,1.64
2022-12-08T17:15:41.479Z,1.64
2022-12-08T17:18:12.287Z,1.62
2022-12-08T17:20:40.630Z,1.64
2022-12-08T17:23:10.142Z,1.63
2022-12-08T17:25:38.287Z,1.62
2022-12-08T17:28:06.395Z,1.65
2022-12-08T17:30:34.853Z,1.61
2022-12-08T17:33:03.124Z,1.60
2022-12-08T17:35:31.729Z,1.60
2022-12-08T17:37:59.727Z,1.56
2022-12-08T17:40:31.415Z,1.53
2022-12-08T17:42:59.391Z,1.52
2022-12-08T17:45:27.719Z,1.49
2022-12-08T17:48:01.489Z,1.48
2022-12-08T17:50:29.905Z,1.45
2022-12-08T17:52:57.989Z,1.46
2022-12-08T17:55:26.021Z,1.47
2022-12-08T17:57:58.500Z,1.44
2022-12-08T18:00:27.224Z,1.40
2022-12-08T18:02:55.971Z,1.38
2022-12-08T18:05:24.628Z,1.34
2022-12-08T18:07:55.487Z,1.31
2022-12-08T18:10:26.566Z,1.30
2022-12-08T18:12:55.790Z,1.29
2022-12-08T18:15:28.508Z,1.28
2022-12-08T18:17:59.352Z,1.26
2022-12-08T18:20:28.015Z,1.25
2022-12-08T18:22:56.252Z,1.23
2022-12-08T18:25:24.350Z,1.24
2022-12-08T18:27:52.599Z,1.20
2022-12-08T18:30:21.000Z,1.19
2022-12-08T18:32:55.744Z,1.18
2022-12-08T18:35:28.739Z,1.19
2022-12-08T18:37:57.003Z,1.15
2022-12-08T18:40:27.155Z,1.14
2022-12-08T18:42:55.527Z,1.13
2022-12-08T18:45:23.862Z,1.11
2022-12-08T18:47:53.594Z,1.13
2022-12-08T18:50:21.772Z,1.09
2022-12-08T18:52:50.205Z,1.08
2022-12-08T18:55:18.268Z,1.10
2022-12-08T18:57:46.824Z,1.10
2022-12-08T19:00:17.760Z,1.06
2022-12-08T19:02:46.463Z,1.04
2022-12-08T19:05:16.360Z,0.96
2022-12-08T19:07:45.711Z,0.91
2022-12-08T19:10:14.261Z,0.81
2022-12-08T19:12:43.043Z,0.72
2022-12-08T19:15:13.677Z,0.64
2022-12-08T19:17:41.900Z,0.59
2022-12-08T19:20:11.062Z,0.48
2022-12-08T19:22:42.910Z,0.45
2022-12-08T19:25:10.972Z,0.39
2022-12-08T19:27:38.958Z,0.31
2022-12-08T19:30:08.537Z,0.27
2022-12-08T19:32:36.818Z,0.24
2022-12-08T19:35:07.425Z,0.16
2022-12-08T19:37:36.428Z,0.18
2022-12-08T19:40:29.440Z,0.25
2022-12-08T19:43:15.051Z,0.25
2022-12-08T19:45:45.900Z,0.26
2022-12-08T19:48:14.568Z,0.24
2022-12-08T19:50:42.820Z,0.26
2022-12-08T19:53:13.131Z,0.28
2022-12-08T19:55:43.634Z,0.32
2022-12-08T19:58:12.340Z,0.28
2022-12-08T20:00:41.415Z,0.27
2022-12-08T20:03:15.173Z,0.27
2022-12-08T20:05:44.356Z,0.26
2022-12-08T20:08:12.795Z,0.25
2022-12-08T20:10:43.973Z,0.26
2022-12-08T20:13:30.649Z,0.25
2022-12-08T20:15:59.004Z,0.29
2022-12-08T20:18:28.609Z,0.29
2022-12-08T20:20:59.089Z,0.28
2022-12-08T20:23:27.227Z,0.28
2022-12-08T20:25:57.103Z,0.28
2022-12-08T20:28:25.494Z,0.29
2022-12-08T20:30:54.182Z,0.31
2022-12-08T20:33:22.467Z,0.30
2022-12-08T20:35:59.816Z,0.29
2022-12-08T20:38:28.173Z,0.30
2022-12-08T20:40:58.731Z,0.27
2022-12-08T20:43:28.922Z,0.31
2022-12-08T20:45:57.206Z,0.31
2022-12-08T20:48:25.381Z,0.28
2022-12-08T20:50:55.073Z,0.28
2022-12-08T20:53:23.196Z,0.30
2022-12-08T20:55:51.288Z,0.32
2022-12-08T20:58:20.908Z,0.34
2022-12-08T21:00:49.886Z,0.36
2022-12-08T21:03:18.683Z,0.36
2022-12-08T21:05:51.476Z,0.36
2022-12-08T21:08:20.583Z,0.38
2022-12-08T21:10:54.772Z,0.41
2022-12-08T21:13:24.472Z,0.39
2022-12-08T21:15:53.356Z,0.39
2022-12-08T21:18:24.571Z,0.40
2022-12-08T21:21:05.327Z,0.39
2022-12-08T21:23:34.437Z,0.40
2022-12-08T21:26:03.505Z,0.41
2022-12-08T21:28:33.319Z,0.40
2022-12-08T21:31:02.036Z,0.42
2022-12-08T21:33:30.402Z,0.40
2022-12-08T21:36:04.376Z,0.45
2022-12-08T21:38:32.689Z,0.45
2022-12-08T21:41:03.847Z,0.47
2022-12-08T21:43:33.540Z,0.46
2022-12-08T21:46:02.124Z,0.46
2022-12-08T21:51:42.281Z,0.46
2022-12-08T21:54:18.274Z,0.45
2022-12-08T21:56:48.793Z,0.43
2022-12-08T21:59:17.367Z,0.45
2022-12-08T22:01:46.133Z,0.46
2022-12-08T22:04:18.057Z,0.45
2022-12-08T22:06:48.115Z,0.46
2022-12-08T22:09:16.526Z,0.47
2022-12-08T22:11:45.328Z,0.44
2022-12-08T22:14:15.959Z,0.40
2022-12-08T22:16:44.666Z,0.42
2022-12-08T22:19:13.217Z,0.38
2022-12-08T22:21:42.035Z,0.35
2022-12-08T22:24:11.853Z,0.35
2022-12-08T22:26:40.168Z,0.42
2022-12-08T22:29:11.072Z,0.19
2022-12-08T22:31:39.331Z,0.41
2022-12-08T22:34:07.481Z,0.43
2022-12-08T22:36:36.098Z,0.43
2022-12-08T22:39:04.960Z,0.45
2022-12-08T22:41:34.427Z,0.45
2022-12-08T22:44:07.168Z,0.42
2022-12-08T22:46:38.063Z,0.43
2022-12-08T22:49:06.457Z,0.43
2022-12-08T22:51:36.785Z,0.40
2022-12-08T22:54:05.505Z,0.38
2022-12-08T22:56:37.181Z,0.38
2022-12-08T22:59:05.608Z,0.34
2022-12-08T23:01:34.609Z,0.33
2022-12-08T23:04:05.195Z,0.34
2022-12-08T23:06:36.264Z,0.35
2022-12-08T23:09:10.480Z,0.33
2022-12-08T23:11:41.799Z,0.32
2022-12-08T23:14:10.295Z,0.37
2022-12-08T23:16:38.873Z,0.37
2022-12-08T23:19:07.201Z,0.38
2022-12-08T23:21:35.566Z,0.35
2022-12-08T23:24:04.297Z,0.34
2022-12-08T23:26:35.346Z,0.30
2022-12-08T23:29:05.911Z,0.35
2022-12-08T23:31:34.366Z,0.41
2022-12-08T23:34:03.503Z,0.51
2022-12-08T23:36:32.014Z,0.55
2022-12-08T23:39:00.268Z,0.53
2022-12-08T23:41:28.553Z,0.50
2022-12-08T23:43:57.052Z,0.49
2022-12-08T23:46:26.731Z,0.45
2022-12-08T23:48:55.152Z,0.39
2022-12-08T23:51:25.647Z,0.41
2022-12-08T23:53:56.675Z,0.38
2022-12-08T23:56:30.008Z,0.36
2022-12-08T23:58:59.470Z,0.36
